sensor_id;sensor_type;location;lat;lon;timestamp;temperature;humidity
1453;DHT22;720;47.738;7.998;2023-05-10T00:02:09;13.10;99.90
1453;DHT22;720;47.738;7.998;2023-05-10T00:04:34;13.10;99.90
1453;DHT22;720;47.738;7.998;2023-05-10T00:07:00;13.00;99.90
1453;DHT22;720;47.738;7.998;2023-05-10T00:09:26;12.90;99.90
1453;DHT22;720;47.738;7.998;2023-05-10T00:11:52;12.80;99.90
1453;DHT22;720;47.738;7.998;2023-05-10T00:14:18;12.80;99.90
1453;DHT22;720;47.738;7.998;2023-05-10T00:16:44;12.60;99.90
1453;DHT22;720;47.738;7.998;2023-05-10T00:19:09;12.70;99.90
1453;DHT22;720;47.738;7.998;2023-05-10T00:21:35;12.70;99.90
1453;DHT22;720;47.738;7.998;2023-05-10T00:24:01;12.70;99.90
1453;DHT22;720;47.738;7.998;2023-05-10T00:26:26;12.70;99.90
1453;DHT22;720;47.738;7.998;2023-05-10T00:28:52;12.50;99.90
1453;DHT22;720;47.738;7.998;2023-05-10T00:31:17;12.50;99.90
1453;DHT22;720;47.738;7.998;2023-05-10T00:33:43;12.50;99.90
1453;DHT22;720;47.738;7.998;2023-05-10T00:36:09;12.40;99.90
1453;DHT22;720;47.738;7.998;2023-05-10T00:38:34;12.40;99.90
1453;DHT22;720;47.738;7.998;2023-05-10T00:41:00;12.30;99.90
1453;DHT22;720;47.738;7.998;2023-05-10T00:43:26;12.40;99.90
1453;DHT22;720;47.738;7.998;2023-05-10T00:45:52;12.40;99.90
1453;DHT22;720;47.738;7.998;2023-05-10T00:48:18;12.50;99.90
1453;DHT22;720;47.738;7.998;2023-05-10T00:50:44;12.50;99.90
1453;DHT22;720;47.738;7.998;2023-05-10T00:53:10;12.50;99.90
1453;DHT22;720;47.738;7.998;2023-05-10T00:55:36;12.50;99.90
1453;DHT22;720;47.738;7.998;2023-05-10T00:58:03;12.60;99.90
1453;DHT22;720;47.738;7.998;2023-05-10T01:00:28;12.60;99.90
1453;DHT22;720;47.738;7.998;2023-05-10T01:02:55;12.70;99.90
1453;DHT22;720;47.738;7.998;2023-05-10T01:05:20;12.70;99.90
1453;DHT22;720;47.738;7.998;2023-05-10T01:07:46;12.70;99.90
1453;DHT22;720;47.738;7.998;2023-05-10T01:10:12;12.70;99.90
1453;DHT22;720;47.738;7.998;2023-05-10T01:12:40;12.80;99.90
1453;DHT22;720;47.738;7.998;2023-05-10T01:15:08;12.70;99.90
1453;DHT22;720;47.738;7.998;2023-05-10T01:17:38;12.70;99.90
1453;DHT22;720;47.738;7.998;2023-05-10T01:20:06;12.70;99.90
1453;DHT22;720;47.738;7.998;2023-05-10T01:38:36;12.80;99.90
1453;DHT22;720;47.738;7.998;2023-05-10T01:41:08;12.80;99.90
1453;DHT22;720;47.738;7.998;2023-05-10T01:43:52;12.80;99.90
1453;DHT22;720;47.738;7.998;2023-05-10T01:46:40;12.70;99.90
1453;DHT22;720;47.738;7.998;2023-05-10T01:49:16;12.70;99.90
1453;DHT22;720;47.738;7.998;2023-05-10T01:51:51;12.70;99.90
1453;DHT22;720;47.738;7.998;2023-05-10T01:54:19;12.70;99.90
1453;DHT22;720;47.738;7.998;2023-05-10T01:56:50;12.70;99.90
1453;DHT22;720;47.738;7.998;2023-05-10T01:59:19;12.60;99.90
1453;DHT22;720;47.738;7.998;2023-05-10T02:01:46;12.60;99.90
1453;DHT22;720;47.738;7.998;2023-05-10T02:04:15;12.50;99.90
1453;DHT22;720;47.738;7.998;2023-05-10T02:06:43;12.40;99.90
1453;DHT22;720;47.738;7.998;2023-05-10T02:09:10;12.30;99.90
1453;DHT22;720;47.738;7.998;2023-05-10T02:11:38;12.30;99.90
1453;DHT22;720;47.738;7.998;2023-05-10T02:14:07;12.40;99.90
1453;DHT22;720;47.738;7.998;2023-05-10T02:16:33;12.50;99.90
1453;DHT22;720;47.738;7.998;2023-05-10T02:19:02;12.50;99.90
1453;DHT22;720;47.738;7.998;2023-05-10T02:21:28;12.60;99.90
1453;DHT22;720;47.738;7.998;2023-05-10T02:23:56;12.60;99.90
1453;DHT22;720;47.738;7.998;2023-05-10T02:26:23;12.60;99.90
1453;DHT22;720;47.738;7.998;2023-05-10T02:28:51;12.70;99.90
1453;DHT22;720;47.738;7.998;2023-05-10T02:31:18;12.70;99.90
1453;DHT22;720;47.738;7.998;2023-05-10T02:33:44;12.70;99.90
1453;DHT22;720;47.738;7.998;2023-05-10T02:36:12;12.60;99.90
1453;DHT22;720;47.738;7.998;2023-05-10T02:38:39;12.70;99.90
1453;DHT22;720;47.738;7.998;2023-05-10T02:41:08;12.60;99.90
1453;DHT22;720;47.738;7.998;2023-05-10T02:43:35;12.60;99.90
1453;DHT22;720;47.738;7.998;2023-05-10T02:46:02;12.50;99.90
1453;DHT22;720;47.738;7.998;2023-05-10T02:48:29;12.50;99.90
1453;DHT22;720;47.738;7.998;2023-05-10T02:50:56;12.60;99.90
1453;DHT22;720;47.738;7.998;2023-05-10T02:53:31;12.60;99.90
1453;DHT22;720;47.738;7.998;2023-05-10T02:56:00;12.70;99.90
1453;DHT22;720;47.738;7.998;2023-05-10T02:58:26;12.60;99.90
1453;DHT22;720;47.738;7.998;2023-05-10T03:00:52;12.70;99.90
1453;DHT22;720;47.738;7.998;2023-05-10T03:03:17;12.60;99.90
1453;DHT22;720;47.738;7.998;2023-05-10T03:05:43;12.50;99.90
1453;DHT22;720;47.738;7.998;2023-05-10T03:08:09;12.40;99.90
1453;DHT22;720;47.738;7.998;2023-05-10T03:10:44;12.50;99.90
1453;DHT22;720;47.738;7.998;2023-05-10T03:18:53;12.60;99.90
1453;DHT22;720;47.738;7.998;2023-05-10T03:21:22;12.60;99.90
1453;DHT22;720;47.738;7.998;2023-05-10T03:26:47;12.60;99.90
1453;DHT22;720;47.738;7.998;2023-05-10T03:29:14;12.60;99.90
1453;DHT22;720;47.738;7.998;2023-05-10T03:31:41;12.50;99.90
1453;DHT22;720;47.738;7.998;2023-05-10T03:34:06;12.50;99.90
1453;DHT22;720;47.738;7.998;2023-05-10T03:36:32;12.50;99.90
1453;DHT22;720;47.738;7.998;2023-05-10T03:38:58;12.50;99.90
1453;DHT22;720;47.738;7.998;2023-05-10T03:41:47;12.30;99.90
1453;DHT22;720;47.738;7.998;2023-05-10T03:44:13;12.20;99.90
1453;DHT22;720;47.738;7.998;2023-05-10T03:46:38;12.10;99.90
1453;DHT22;720;47.738;7.998;2023-05-10T03:49:04;12.10;99.90
1453;DHT22;720;47.738;7.998;2023-05-10T03:51:29;12.20;99.90
1453;DHT22;720;47.738;7.998;2023-05-10T03:53:56;12.20;99.90
1453;DHT22;720;47.738;7.998;2023-05-10T03:56:22;12.10;99.90
1453;DHT22;720;47.738;7.998;2023-05-10T03:58:47;12.10;99.90
1453;DHT22;720;47.738;7.998;2023-05-10T04:01:13;12.00;99.90
1453;DHT22;720;47.738;7.998;2023-05-10T04:03:39;12.00;99.90
1453;DHT22;720;47.738;7.998;2023-05-10T04:06:04;12.00;99.90
1453;DHT22;720;47.738;7.998;2023-05-10T04:08:31;12.10;99.90
1453;DHT22;720;47.738;7.998;2023-05-10T04:11:10;12.20;99.90
1453;DHT22;720;47.738;7.998;2023-05-10T04:13:37;12.30;99.90
1453;DHT22;720;47.738;7.998;2023-05-10T04:16:03;12.30;99.90
1453;DHT22;720;47.738;7.998;2023-05-10T04:18:29;12.30;99.90
1453;DHT22;720;47.738;7.998;2023-05-10T04:20:55;12.30;99.90
1453;DHT22;720;47.738;7.998;2023-05-10T04:23:21;12.30;99.90
1453;DHT22;720;47.738;7.998;2023-05-10T04:25:46;12.30;99.90
1453;DHT22;720;47.738;7.998;2023-05-10T04:28:12;12.30;99.90
1453;DHT22;720;47.738;7.998;2023-05-10T04:30:39;12.30;99.90
1453;DHT22;720;47.738;7.998;2023-05-10T04:33:05;12.30;99.90
1453;DHT22;720;47.738;7.998;2023-05-10T04:35:31;12.20;99.90
1453;DHT22;720;47.738;7.998;2023-05-10T04:37:57;12.10;99.90
1453;DHT22;720;47.738;7.998;2023-05-10T04:40:22;11.90;99.90
1453;DHT22;720;47.738;7.998;2023-05-10T04:42:48;11.90;99.90
1453;DHT22;720;47.738;7.998;2023-05-10T04:45:13;12.00;99.90
1453;DHT22;720;47.738;7.998;2023-05-10T04:47:42;12.10;99.90
1453;DHT22;720;47.738;7.998;2023-05-10T04:50:08;12.30;99.90
1453;DHT22;720;47.738;7.998;2023-05-10T04:52:33;12.20;99.90
1453;DHT22;720;47.738;7.998;2023-05-10T04:54:59;12.20;99.90
1453;DHT22;720;47.738;7.998;2023-05-10T04:57:24;12.20;99.90
1453;DHT22;720;47.738;7.998;2023-05-10T04:59:50;12.30;99.90
1453;DHT22;720;47.738;7.998;2023-05-10T05:02:16;12.20;99.90
1453;DHT22;720;47.738;7.998;2023-05-10T05:04:41;12.10;99.90
1453;DHT22;720;47.738;7.998;2023-05-10T05:07:07;12.00;99.90
1453;DHT22;720;47.738;7.998;2023-05-10T05:09:33;11.90;99.90
1453;DHT22;720;47.738;7.998;2023-05-10T05:11:58;11.90;99.90
1453;DHT22;720;47.738;7.998;2023-05-10T05:14:24;12.10;99.90
1453;DHT22;720;47.738;7.998;2023-05-10T05:16:51;12.10;99.90
1453;DHT22;720;47.738;7.998;2023-05-10T05:19:17;12.20;99.90
1453;DHT22;720;47.738;7.998;2023-05-10T05:21:43;12.20;99.90
1453;DHT22;720;47.738;7.998;2023-05-10T05:24:08;12.20;99.90
1453;DHT22;720;47.738;7.998;2023-05-10T05:26:35;12.10;99.90
1453;DHT22;720;47.738;7.998;2023-05-10T05:29:02;12.10;99.90
1453;DHT22;720;47.738;7.998;2023-05-10T05:31:28;12.10;99.90
1453;DHT22;720;47.738;7.998;2023-05-10T05:33:53;12.20;99.90
1453;DHT22;720;47.738;7.998;2023-05-10T05:36:19;12.20;99.90
1453;DHT22;720;47.738;7.998;2023-05-10T05:38:45;12.20;99.90
1453;DHT22;720;47.738;7.998;2023-05-10T05:41:10;12.20;99.90
1453;DHT22;720;47.738;7.998;2023-05-10T05:43:36;12.30;99.90
1453;DHT22;720;47.738;7.998;2023-05-10T05:46:02;12.30;99.90
1453;DHT22;720;47.738;7.998;2023-05-10T05:48:29;12.40;99.90
1453;DHT22;720;47.738;7.998;2023-05-10T05:50:55;12.30;99.90
1453;DHT22;720;47.738;7.998;2023-05-10T05:53:24;12.40;99.90
1453;DHT22;720;47.738;7.998;2023-05-10T05:55:57;12.40;99.90
1453;DHT22;720;47.738;7.998;2023-05-10T05:58:24;12.50;99.90
1453;DHT22;720;47.738;7.998;2023-05-10T06:00:51;12.50;99.90
1453;DHT22;720;47.738;7.998;2023-05-10T06:03:17;12.50;99.90
1453;DHT22;720;47.738;7.998;2023-05-10T06:05:43;12.40;99.90
1453;DHT22;720;47.738;7.998;2023-05-10T06:08:09;12.40;99.90
1453;DHT22;720;47.738;7.998;2023-05-10T06:10:35;12.30;99.90
1453;DHT22;720;47.738;7.998;2023-05-10T06:13:01;12.20;99.90
1453;DHT22;720;47.738;7.998;2023-05-10T06:15:27;12.20;99.90
1453;DHT22;720;47.738;7.998;2023-05-10T06:17:53;12.20;99.90
1453;DHT22;720;47.738;7.998;2023-05-10T06:20:19;12.10;99.90
1453;DHT22;720;47.738;7.998;2023-05-10T06:22:44;12.30;99.90
1453;DHT22;720;47.738;7.998;2023-05-10T06:25:10;12.40;99.90
1453;DHT22;720;47.738;7.998;2023-05-10T06:27:36;12.40;99.90
1453;DHT22;720;47.738;7.998;2023-05-10T06:30:02;12.50;99.90
1453;DHT22;720;47.738;7.998;2023-05-10T06:32:28;12.40;99.90
1453;DHT22;720;47.738;7.998;2023-05-10T06:34:54;12.50;99.90
1453;DHT22;720;47.738;7.998;2023-05-10T06:37:20;12.50;99.90
1453;DHT22;720;47.738;7.998;2023-05-10T06:39:45;12.50;99.90
1453;DHT22;720;47.738;7.998;2023-05-10T06:42:11;12.40;99.90
1453;DHT22;720;47.738;7.998;2023-05-10T06:44:37;12.30;99.90
1453;DHT22;720;47.738;7.998;2023-05-10T06:47:02;12.30;99.90
1453;DHT22;720;47.738;7.998;2023-05-10T06:49:28;12.30;99.90
1453;DHT22;720;47.738;7.998;2023-05-10T06:51:55;12.30;99.90
1453;DHT22;720;47.738;7.998;2023-05-10T06:54:21;12.30;99.90
1453;DHT22;720;47.738;7.998;2023-05-10T06:56:46;12.20;99.90
1453;DHT22;720;47.738;7.998;2023-05-10T06:59:12;12.20;99.90
1453;DHT22;720;47.738;7.998;2023-05-10T07:01:39;12.20;99.90
1453;DHT22;720;47.738;7.998;2023-05-10T07:04:05;12.20;99.90
1453;DHT22;720;47.738;7.998;2023-05-10T07:06:30;12.30;99.90
1453;DHT22;720;47.738;7.998;2023-05-10T07:08:56;12.40;99.90
1453;DHT22;720;47.738;7.998;2023-05-10T07:11:22;12.40;99.90
1453;DHT22;720;47.738;7.998;2023-05-10T07:13:48;12.50;99.90
1453;DHT22;720;47.738;7.998;2023-05-10T07:16:13;12.50;99.90
1453;DHT22;720;47.738;7.998;2023-05-10T07:18:39;12.70;99.90
1453;DHT22;720;47.738;7.998;2023-05-10T07:21:04;12.80;99.90
1453;DHT22;720;47.738;7.998;2023-05-10T07:23:30;13.00;99.90
1453;DHT22;720;47.738;7.998;2023-05-10T07:25:56;13.10;99.90
1453;DHT22;720;47.738;7.998;2023-05-10T07:28:23;13.20;99.90
1453;DHT22;720;47.738;7.998;2023-05-10T07:30:49;13.10;99.90
1453;DHT22;720;47.738;7.998;2023-05-10T07:33:16;12.90;99.90
1453;DHT22;720;47.738;7.998;2023-05-10T07:35:42;12.90;99.90
1453;DHT22;720;47.738;7.998;2023-05-10T07:38:08;12.90;99.90
1453;DHT22;720;47.738;7.998;2023-05-10T07:40:33;13.00;99.90
1453;DHT22;720;47.738;7.998;2023-05-10T07:42:59;13.10;99.90
1453;DHT22;720;47.738;7.998;2023-05-10T07:45:27;13.30;99.90
1453;DHT22;720;47.738;7.998;2023-05-10T07:47:52;13.50;99.90
1453;DHT22;720;47.738;7.998;2023-05-10T07:50:18;14.00;99.90
1453;DHT22;720;47.738;7.998;2023-05-10T07:52:44;13.80;99.60
1453;DHT22;720;47.738;7.998;2023-05-10T07:55:09;13.80;99.90
1453;DHT22;720;47.738;7.998;2023-05-10T07:57:35;13.90;99.90
1453;DHT22;720;47.738;7.998;2023-05-10T08:00:01;14.30;99.40
1453;DHT22;720;47.738;7.998;2023-05-10T08:02:26;14.40;98.90
1453;DHT22;720;47.738;7.998;2023-05-10T08:04:53;14.80;98.50
1453;DHT22;720;47.738;7.998;2023-05-10T08:07:19;15.20;98.20
1453;DHT22;720;47.738;7.998;2023-05-10T08:09:44;15.40;97.70
1453;DHT22;720;47.738;7.998;2023-05-10T08:12:11;15.70;97.80
1453;DHT22;720;47.738;7.998;2023-05-10T08:14:37;16.00;97.80
1453;DHT22;720;47.738;7.998;2023-05-10T08:17:03;16.20;95.10
1453;DHT22;720;47.738;7.998;2023-05-10T08:19:29;16.30;95.10
1453;DHT22;720;47.738;7.998;2023-05-10T08:21:54;16.20;94.70
1453;DHT22;720;47.738;7.998;2023-05-10T08:24:23;16.10;95.30
1453;DHT22;720;47.738;7.998;2023-05-10T08:26:49;16.00;96.10
1453;DHT22;720;47.738;7.998;2023-05-10T08:29:14;16.00;95.10
1453;DHT22;720;47.738;7.998;2023-05-10T08:31:40;16.10;96.40
1453;DHT22;720;47.738;7.998;2023-05-10T08:34:06;16.40;94.80
1453;DHT22;720;47.738;7.998;2023-05-10T08:36:32;16.60;93.50
1453;DHT22;720;47.738;7.998;2023-05-10T08:38:57;16.70;93.50
1453;DHT22;720;47.738;7.998;2023-05-10T08:41:24;16.80;93.30
1453;DHT22;720;47.738;7.998;2023-05-10T08:43:52;16.70;93.50
1453;DHT22;720;47.738;7.998;2023-05-10T08:46:19;16.40;94.10
1453;DHT22;720;47.738;7.998;2023-05-10T08:48:46;16.30;95.20
1453;DHT22;720;47.738;7.998;2023-05-10T08:51:22;16.20;95.10
1453;DHT22;720;47.738;7.998;2023-05-10T08:53:48;16.30;95.20
1453;DHT22;720;47.738;7.998;2023-05-10T08:56:13;16.40;94.00
1453;DHT22;720;47.738;7.998;2023-05-10T08:58:41;16.30;94.60
1453;DHT22;720;47.738;7.998;2023-05-10T09:01:07;16.30;93.90
1453;DHT22;720;47.738;7.998;2023-05-10T09:03:34;16.50;93.70
1453;DHT22;720;47.738;7.998;2023-05-10T09:06:00;16.80;93.50
1453;DHT22;720;47.738;7.998;2023-05-10T09:08:26;17.10;92.30
1453;DHT22;720;47.738;7.998;2023-05-10T09:10:53;17.40;92.20
1453;DHT22;720;47.738;7.998;2023-05-10T09:13:19;17.30;90.90
1453;DHT22;720;47.738;7.998;2023-05-10T09:15:47;17.20;92.40
1453;DHT22;720;47.738;7.998;2023-05-10T09:18:13;17.20;92.30
1453;DHT22;720;47.738;7.998;2023-05-10T09:20:39;17.20;91.20
1453;DHT22;720;47.738;7.998;2023-05-10T12:09:31;16.80;80.90
1453;DHT22;720;47.738;7.998;2023-05-10T12:11:57;16.30;82.80
1453;DHT22;720;47.738;7.998;2023-05-10T12:14:23;16.10;83.10
1453;DHT22;720;47.738;7.998;2023-05-10T12:16:50;16.00;84.70
1453;DHT22;720;47.738;7.998;2023-05-10T12:19:19;16.20;94.60
1453;DHT22;720;47.738;7.998;2023-05-10T12:21:48;16.10;84.60
1453;DHT22;720;47.738;7.998;2023-05-10T12:24:14;15.90;85.40
1453;DHT22;720;47.738;7.998;2023-05-10T12:29:16;15.90;93.30
1453;DHT22;720;47.738;7.998;2023-05-10T12:32:00;16.00;87.60
1453;DHT22;720;47.738;7.998;2023-05-10T12:34:29;16.50;83.30
1453;DHT22;720;47.738;7.998;2023-05-10T12:36:55;16.50;83.30
1453;DHT22;720;47.738;7.998;2023-05-10T12:39:21;16.40;83.00
1453;DHT22;720;47.738;7.998;2023-05-10T12:41:47;16.20;83.80
1453;DHT22;720;47.738;7.998;2023-05-10T12:44:12;16.30;82.60
1453;DHT22;720;47.738;7.998;2023-05-10T12:46:38;16.40;83.10
1453;DHT22;720;47.738;7.998;2023-05-10T12:49:03;16.40;83.50
1453;DHT22;720;47.738;7.998;2023-05-10T12:51:29;16.10;82.30
1453;DHT22;720;47.738;7.998;2023-05-10T12:53:56;15.70;83.50
1453;DHT22;720;47.738;7.998;2023-05-10T12:56:21;15.60;85.80
1453;DHT22;720;47.738;7.998;2023-05-10T12:58:47;15.80;87.00
1453;DHT22;720;47.738;7.998;2023-05-10T13:01:14;16.10;85.30
1453;DHT22;720;47.738;7.998;2023-05-10T13:03:39;16.30;83.70
1453;DHT22;720;47.738;7.998;2023-05-10T13:06:05;16.40;85.60
1453;DHT22;720;47.738;7.998;2023-05-10T13:08:32;16.50;86.20
1453;DHT22;720;47.738;7.998;2023-05-10T13:11:02;16.40;84.00
1453;DHT22;720;47.738;7.998;2023-05-10T13:13:28;16.10;86.10
1453;DHT22;720;47.738;7.998;2023-05-10T13:15:54;16.00;87.70
1453;DHT22;720;47.738;7.998;2023-05-10T13:18:19;16.20;89.40
1453;DHT22;720;47.738;7.998;2023-05-10T13:20:45;16.50;84.80
1453;DHT22;720;47.738;7.998;2023-05-10T13:23:11;16.50;81.90
1453;DHT22;720;47.738;7.998;2023-05-10T13:25:37;16.60;82.50
1453;DHT22;720;47.738;7.998;2023-05-10T13:28:03;16.60;81.70
1453;DHT22;720;47.738;7.998;2023-05-10T13:30:28;16.70;83.40
1453;DHT22;720;47.738;7.998;2023-05-10T13:32:54;16.90;82.90
1453;DHT22;720;47.738;7.998;2023-05-10T13:35:20;16.90;79.30
1453;DHT22;720;47.738;7.998;2023-05-10T13:37:45;17.00;82.20
1453;DHT22;720;47.738;7.998;2023-05-10T13:40:11;17.20;80.20
1453;DHT22;720;47.738;7.998;2023-05-10T13:42:37;17.30;77.70
1453;DHT22;720;47.738;7.998;2023-05-10T13:45:03;17.20;78.30
1453;DHT22;720;47.738;7.998;2023-05-10T13:47:29;16.90;78.50
1453;DHT22;720;47.738;7.998;2023-05-10T13:49:55;17.00;80.20
1453;DHT22;720;47.738;7.998;2023-05-10T13:52:21;16.90;79.40
1453;DHT22;720;47.738;7.998;2023-05-10T13:54:47;16.90;80.50
1453;DHT22;720;47.738;7.998;2023-05-10T13:57:12;17.00;79.00
1453;DHT22;720;47.738;7.998;2023-05-10T13:59:39;16.90;76.70
1453;DHT22;720;47.738;7.998;2023-05-10T14:02:05;16.80;76.90
1453;DHT22;720;47.738;7.998;2023-05-10T14:04:31;16.70;79.60
1453;DHT22;720;47.738;7.998;2023-05-10T14:06:57;16.60;79.10
1453;DHT22;720;47.738;7.998;2023-05-10T14:09:23;16.30;76.90
1453;DHT22;720;47.738;7.998;2023-05-10T14:11:48;16.20;78.80
1453;DHT22;720;47.738;7.998;2023-05-10T14:14:14;16.30;80.00
1453;DHT22;720;47.738;7.998;2023-05-10T14:16:44;16.30;78.90
1453;DHT22;720;47.738;7.998;2023-05-10T14:19:10;16.40;81.10
1453;DHT22;720;47.738;7.998;2023-05-10T14:21:36;16.50;79.20
1453;DHT22;720;47.738;7.998;2023-05-10T14:24:02;16.60;80.20
1453;DHT22;720;47.738;7.998;2023-05-10T14:26:28;16.40;80.70
1453;DHT22;720;47.738;7.998;2023-05-10T14:28:53;16.30;81.30
1453;DHT22;720;47.738;7.998;2023-05-10T14:31:19;16.20;82.30
1453;DHT22;720;47.738;7.998;2023-05-10T14:33:46;16.20;82.70
1453;DHT22;720;47.738;7.998;2023-05-10T14:36:12;16.40;81.60
1453;DHT22;720;47.738;7.998;2023-05-10T14:38:39;16.50;81.50
1453;DHT22;720;47.738;7.998;2023-05-10T14:41:05;16.40;82.20
1453;DHT22;720;47.738;7.998;2023-05-10T14:43:30;16.60;82.70
1453;DHT22;720;47.738;7.998;2023-05-10T14:45:56;16.90;83.90
1453;DHT22;720;47.738;7.998;2023-05-10T14:48:22;17.00;80.80
1453;DHT22;720;47.738;7.998;2023-05-10T14:50:47;17.10;81.50
1453;DHT22;720;47.738;7.998;2023-05-10T14:53:15;17.30;81.10
1453;DHT22;720;47.738;7.998;2023-05-10T14:55:40;17.30;80.40
1453;DHT22;720;47.738;7.998;2023-05-10T14:58:06;17.20;81.20
1453;DHT22;720;47.738;7.998;2023-05-10T15:00:32;17.20;78.80
1453;DHT22;720;47.738;7.998;2023-05-10T15:02:57;17.20;78.90
1453;DHT22;720;47.738;7.998;2023-05-10T15:05:23;17.00;80.80
1453;DHT22;720;47.738;7.998;2023-05-10T15:07:49;16.90;81.70
1453;DHT22;720;47.738;7.998;2023-05-10T15:10:14;16.80;78.20
1453;DHT22;720;47.738;7.998;2023-05-10T15:12:40;16.70;78.70
1453;DHT22;720;47.738;7.998;2023-05-10T15:15:06;16.90;79.00
1453;DHT22;720;47.738;7.998;2023-05-10T15:17:33;17.00;80.10
1453;DHT22;720;47.738;7.998;2023-05-10T15:19:58;17.00;80.90
1453;DHT22;720;47.738;7.998;2023-05-10T15:22:24;16.90;79.10
1453;DHT22;720;47.738;7.998;2023-05-10T15:24:50;16.90;79.60
1453;DHT22;720;47.738;7.998;2023-05-10T15:27:15;17.00;80.20
1453;DHT22;720;47.738;7.998;2023-05-10T15:29:41;17.00;80.70
1453;DHT22;720;47.738;7.998;2023-05-10T15:32:07;17.00;80.20
1453;DHT22;720;47.738;7.998;2023-05-10T15:34:32;17.00;80.40
1453;DHT22;720;47.738;7.998;2023-05-10T15:36:58;16.90;80.30
1453;DHT22;720;47.738;7.998;2023-05-10T15:39:24;16.70;80.50
1453;DHT22;720;47.738;7.998;2023-05-10T15:41:49;16.70;82.30
1453;DHT22;720;47.738;7.998;2023-05-10T15:44:15;16.70;81.30
1453;DHT22;720;47.738;7.998;2023-05-10T15:46:41;16.70;81.80
1453;DHT22;720;47.738;7.998;2023-05-10T15:49:06;16.70;83.30
1453;DHT22;720;47.738;7.998;2023-05-10T15:51:32;16.50;84.00
1453;DHT22;720;47.738;7.998;2023-05-10T15:53:58;16.20;82.30
1453;DHT22;720;47.738;7.998;2023-05-10T15:56:24;15.90;84.10
1453;DHT22;720;47.738;7.998;2023-05-10T15:58:51;15.80;85.90
1453;DHT22;720;47.738;7.998;2023-05-10T16:01:16;15.70;85.10
1453;DHT22;720;47.738;7.998;2023-05-10T16:03:42;15.60;86.00
1453;DHT22;720;47.738;7.998;2023-05-10T16:06:08;15.60;87.60
1453;DHT22;720;47.738;7.998;2023-05-10T16:08:33;15.60;85.80
1453;DHT22;720;47.738;7.998;2023-05-10T16:10:59;15.60;84.80
1453;DHT22;720;47.738;7.998;2023-05-10T16:13:25;15.50;85.60
1453;DHT22;720;47.738;7.998;2023-05-10T16:15:52;15.50;87.40
1453;DHT22;720;47.738;7.998;2023-05-10T16:18:18;15.50;87.10
1453;DHT22;720;47.738;7.998;2023-05-10T16:20:44;15.40;83.50
1453;DHT22;720;47.738;7.998;2023-05-10T16:23:10;15.40;83.90
1453;DHT22;720;47.738;7.998;2023-05-10T16:25:36;15.40;84.50
1453;DHT22;720;47.738;7.998;2023-05-10T16:28:02;15.50;86.80
1453;DHT22;720;47.738;7.998;2023-05-10T16:30:27;15.50;84.60
1453;DHT22;720;47.738;7.998;2023-05-10T16:32:58;15.40;84.40
1453;DHT22;720;47.738;7.998;2023-05-10T16:35:25;15.40;84.10
1453;DHT22;720;47.738;7.998;2023-05-10T16:37:51;15.40;85.40
1453;DHT22;720;47.738;7.998;2023-05-10T16:40:17;15.40;84.90
1453;DHT22;720;47.738;7.998;2023-05-10T16:42:43;15.40;85.00
1453;DHT22;720;47.738;7.998;2023-05-10T16:45:08;15.30;85.30
1453;DHT22;720;47.738;7.998;2023-05-10T16:47:35;15.20;85.70
1453;DHT22;720;47.738;7.998;2023-05-10T16:50:02;15.20;85.00
1453;DHT22;720;47.738;7.998;2023-05-10T16:52:28;15.10;84.50
1453;DHT22;720;47.738;7.998;2023-05-10T16:54:54;15.10;86.40
1453;DHT22;720;47.738;7.998;2023-05-10T16:57:20;15.00;86.60
1453;DHT22;720;47.738;7.998;2023-05-10T16:59:46;15.00;87.50
1453;DHT22;720;47.738;7.998;2023-05-10T17:02:13;14.80;86.40
1453;DHT22;720;47.738;7.998;2023-05-10T17:04:39;14.40;88.10
1453;DHT22;720;47.738;7.998;2023-05-10T17:07:05;14.30;90.10
1453;DHT22;720;47.738;7.998;2023-05-10T17:09:30;14.20;90.30
1453;DHT22;720;47.738;7.998;2023-05-10T17:11:56;14.10;90.10
1453;DHT22;720;47.738;7.998;2023-05-10T17:14:22;14.10;90.60
1453;DHT22;720;47.738;7.998;2023-05-10T17:16:47;14.10;90.80
1453;DHT22;720;47.738;7.998;2023-05-10T17:19:14;14.40;98.70
1453;DHT22;720;47.738;7.998;2023-05-10T17:21:39;14.20;90.90
1453;DHT22;720;47.738;7.998;2023-05-10T17:24:05;14.30;91.50
1453;DHT22;720;47.738;7.998;2023-05-10T17:26:31;14.30;91.00
1453;DHT22;720;47.738;7.998;2023-05-10T17:28:57;15.10;92.00
1453;DHT22;720;47.738;7.998;2023-05-10T17:31:22;14.10;90.80
1453;DHT22;720;47.738;7.998;2023-05-10T17:33:48;13.90;90.70
1453;DHT22;720;47.738;7.998;2023-05-10T17:36:14;13.80;91.80
1453;DHT22;720;47.738;7.998;2023-05-10T17:38:39;13.80;92.20
1453;DHT22;720;47.738;7.998;2023-05-10T17:41:05;13.70;92.70
1453;DHT22;720;47.738;7.998;2023-05-10T17:43:30;13.70;92.80
1453;DHT22;720;47.738;7.998;2023-05-10T17:45:56;13.60;92.80
1453;DHT22;720;47.738;7.998;2023-05-10T17:48:22;13.50;92.20
1453;DHT22;720;47.738;7.998;2023-05-10T17:50:50;13.40;92.90
1453;DHT22;720;47.738;7.998;2023-05-10T17:53:16;13.20;92.40
1453;DHT22;720;47.738;7.998;2023-05-10T17:55:42;13.10;92.70
1453;DHT22;720;47.738;7.998;2023-05-10T17:58:10;13.00;92.70
1453;DHT22;720;47.738;7.998;2023-05-10T18:00:36;12.90;93.70
1453;DHT22;720;47.738;7.998;2023-05-10T18:03:02;12.80;94.40
1453;DHT22;720;47.738;7.998;2023-05-10T18:05:28;12.70;96.00
1453;DHT22;720;47.738;7.998;2023-05-10T18:07:53;12.70;96.90
1453;DHT22;720;47.738;7.998;2023-05-10T18:10:19;12.60;97.30
1453;DHT22;720;47.738;7.998;2023-05-10T18:12:45;12.60;97.50
1453;DHT22;720;47.738;7.998;2023-05-10T18:15:10;12.50;98.50
1453;DHT22;720;47.738;7.998;2023-05-10T18:17:36;12.60;99.10
1453;DHT22;720;47.738;7.998;2023-05-10T18:20:02;12.50;99.10
1453;DHT22;720;47.738;7.998;2023-05-10T18:22:28;12.50;99.10
1453;DHT22;720;47.738;7.998;2023-05-10T18:24:53;12.40;99.80
1453;DHT22;720;47.738;7.998;2023-05-10T18:27:19;12.30;99.90
1453;DHT22;720;47.738;7.998;2023-05-10T18:29:45;12.20;99.90
1453;DHT22;720;47.738;7.998;2023-05-10T18:32:10;12.00;99.90
1453;DHT22;720;47.738;7.998;2023-05-10T18:34:36;11.90;99.90
1453;DHT22;720;47.738;7.998;2023-05-10T18:37:02;11.90;99.90
1453;DHT22;720;47.738;7.998;2023-05-10T18:39:40;12.00;99.90
1453;DHT22;720;47.738;7.998;2023-05-10T18:42:07;12.00;99.90
1453;DHT22;720;47.738;7.998;2023-05-10T18:44:33;11.90;99.90
1453;DHT22;720;47.738;7.998;2023-05-10T18:46:59;11.90;99.90
1453;DHT22;720;47.738;7.998;2023-05-10T18:49:25;11.90;99.90
1453;DHT22;720;47.738;7.998;2023-05-10T18:51:51;11.80;99.90
1453;DHT22;720;47.738;7.998;2023-05-10T18:54:17;11.80;99.90
1453;DHT22;720;47.738;7.998;2023-05-10T18:56:43;11.80;99.90
1453;DHT22;720;47.738;7.998;2023-05-10T18:59:12;12.00;99.90
1453;DHT22;720;47.738;7.998;2023-05-10T19:01:39;11.90;99.90
1453;DHT22;720;47.738;7.998;2023-05-10T19:04:05;12.00;99.90
1453;DHT22;720;47.738;7.998;2023-05-10T19:06:32;12.00;99.90
1453;DHT22;720;47.738;7.998;2023-05-10T19:08:58;12.00;99.80
1453;DHT22;720;47.738;7.998;2023-05-10T19:11:24;12.00;99.90
1453;DHT22;720;47.738;7.998;2023-05-10T19:13:49;12.00;99.50
1453;DHT22;720;47.738;7.998;2023-05-10T19:16:16;12.00;99.30
1453;DHT22;720;47.738;7.998;2023-05-10T19:18:45;12.00;99.30
1453;DHT22;720;47.738;7.998;2023-05-10T19:21:11;12.00;99.40
1453;DHT22;720;47.738;7.998;2023-05-10T19:23:37;12.00;99.60
1453;DHT22;720;47.738;7.998;2023-05-10T19:26:04;11.90;99.70